createdAt,value
2022-12-03T00:00:19.094Z,2.80
2022-12-03T00:02:45.833Z,2.00
2022-12-03T00:05:12.602Z,2.00
2022-12-03T00:07:39.220Z,2.10
2022-12-03T00:10:06.229Z,2.40
2022-12-03T00:12:32.876Z,2.00
2022-12-03T00:14:59.492Z,2.00
2022-12-03T00:17:26.190Z,2.80
2022-12-03T00:19:52.804Z,2.90
2022-12-03T00:22:19.407Z,2.60
2022-12-03T00:24:46.053Z,2.00
2022-12-03T00:27:12.700Z,2.30
2022-12-03T00:29:39.386Z,2.00
2022-12-03T00:32:06.042Z,3.20
2022-12-03T00:34:32.651Z,2.00
2022-12-03T00:36:59.314Z,2.00
2022-12-03T00:39:25.927Z,3.30
2022-12-03T00:41:52.521Z,3.00
2022-12-03T00:44:19.146Z,3.10
2022-12-03T00:46:45.809Z,2.00
2022-12-03T00:49:12.524Z,2.00
2022-12-03T00:51:39.137Z,2.00
2022-12-03T00:54:05.749Z,2.00
2022-12-03T00:56:32.385Z,1.90
2022-12-03T00:58:59.016Z,1.90
2022-12-03T01:01:25.966Z,1.90
2022-12-03T01:03:52.626Z,1.90
2022-12-03T01:06:19.241Z,1.90
2022-12-03T01:08:45.901Z,1.90
2022-12-03T01:11:31.296Z,1.90
2022-12-03T01:13:57.921Z,1.90
2022-12-03T01:16:24.624Z,1.90
2022-12-03T01:18:52.810Z,3.10
2022-12-03T01:21:19.627Z,2.10
2022-12-03T01:23:46.301Z,2.10
2022-12-03T01:26:13.005Z,1.90
2022-12-03T01:28:41.852Z,1.90
2022-12-03T01:31:27.568Z,2.20
2022-12-03T01:33:54.354Z,1.90
2022-12-03T01:36:20.997Z,1.90
2022-12-03T01:38:48.750Z,1.90
2022-12-03T01:41:18.240Z,2.50
2022-12-03T01:43:44.886Z,1.90
2022-12-03T01:46:16.382Z,3.30
2022-12-03T01:48:43.174Z,1.90
2022-12-03T01:51:09.773Z,1.90
2022-12-03T01:53:36.386Z,1.90
2022-12-03T01:56:03.029Z,1.90
2022-12-03T01:58:29.697Z,2.10
2022-12-03T02:00:56.978Z,1.90
2022-12-03T02:03:24.413Z,2.00
2022-12-03T02:05:51.190Z,2.30
2022-12-03T02:08:30.042Z,1.90
2022-12-03T02:10:57.641Z,1.90
2022-12-03T02:13:24.310Z,1.90
2022-12-03T02:15:51.046Z,1.90
2022-12-03T02:18:17.742Z,2.90
2022-12-03T02:20:47.330Z,1.90
2022-12-03T02:23:14.345Z,1.90
2022-12-03T02:25:41.002Z,2.00
2022-12-03T02:28:07.960Z,0.50
2022-12-03T02:30:34.566Z,2.00
2022-12-03T02:33:01.194Z,2.00
2022-12-03T02:35:28.791Z,2.00
2022-12-03T02:37:58.348Z,2.80
2022-12-03T02:40:25.985Z,2.00
2022-12-03T02:42:53.781Z,2.90
2022-12-03T02:45:20.360Z,2.00
2022-12-03T02:47:47.729Z,2.10
2022-12-03T02:50:15.070Z,2.00
2022-12-03T02:52:42.308Z,3.70
2022-12-03T02:55:09.044Z,2.00
2022-12-03T02:57:36.056Z,2.10
2022-12-03T03:00:02.715Z,2.10
2022-12-03T03:02:29.586Z,2.10
2022-12-03T03:04:56.264Z,2.90
2022-12-03T03:07:23.091Z,2.10
2022-12-03T03:09:49.685Z,2.10
2022-12-03T03:12:16.378Z,2.60
2022-12-03T03:14:43.014Z,2.10
2022-12-03T03:17:09.612Z,2.20
2022-12-03T03:19:36.217Z,2.10
2022-12-03T03:22:03.095Z,3.10
2022-12-03T03:24:29.707Z,2.20
2022-12-03T03:26:56.305Z,2.20
2022-12-03T03:29:22.920Z,2.10
2022-12-03T03:31:49.798Z,2.10
2022-12-03T03:34:16.474Z,2.20
2022-12-03T03:36:43.157Z,2.20
2022-12-03T03:39:09.766Z,2.20
2022-12-03T03:41:36.457Z,2.20
2022-12-03T03:44:03.860Z,3.40
2022-12-03T03:46:30.656Z,2.20
2022-12-03T03:48:57.342Z,2.20
2022-12-03T03:51:23.935Z,2.30
2022-12-03T03:53:50.954Z,2.30
2022-12-03T03:56:17.760Z,2.80
2022-12-03T03:58:44.370Z,2.30
2022-12-03T04:01:11.339Z,2.80
2022-12-03T04:03:38.092Z,2.30
2022-12-03T04:06:04.850Z,2.40
2022-12-03T04:08:31.522Z,2.30
2022-12-03T04:11:17.077Z,2.80
2022-12-03T04:13:43.703Z,2.50
2022-12-03T04:16:10.320Z,2.30
2022-12-03T04:18:42.809Z,3.00
2022-12-03T04:21:30.606Z,2.80
2022-12-03T04:23:57.271Z,2.30
2022-12-03T04:26:42.861Z,2.30
2022-12-03T04:29:09.515Z,2.30
2022-12-03T04:31:54.762Z,2.20
2022-12-03T04:34:39.980Z,2.70
2022-12-03T04:37:06.845Z,2.20
2022-12-03T04:39:33.481Z,2.20
2022-12-03T04:42:00.146Z,2.30
2022-12-03T04:44:36.487Z,2.30
2022-12-03T04:47:10.103Z,2.90
2022-12-03T04:49:37.561Z,2.30
2022-12-03T04:52:04.401Z,2.30
2022-12-03T04:54:31.057Z,2.30
2022-12-03T04:56:57.734Z,2.40
2022-12-03T04:59:24.432Z,3.30
2022-12-03T05:01:57.180Z,2.30
2022-12-03T05:04:23.848Z,2.30
2022-12-03T05:06:50.518Z,2.90
2022-12-03T05:09:17.125Z,3.30
2022-12-03T05:11:43.816Z,3.60
2022-12-03T05:14:10.696Z,3.60
2022-12-03T05:16:37.623Z,3.50
2022-12-03T05:19:04.599Z,3.30
2022-12-03T05:21:31.209Z,2.30
2022-12-03T05:23:57.862Z,2.30
2022-12-03T05:26:24.500Z,2.50
2022-12-03T05:28:51.158Z,2.30
2022-12-03T05:31:17.878Z,2.30
2022-12-03T05:33:44.722Z,2.30
2022-12-03T05:36:11.580Z,2.30
2022-12-03T05:38:38.193Z,2.70
2022-12-03T05:41:24.843Z,2.30
2022-12-03T05:43:51.458Z,2.30
2022-12-03T05:46:18.134Z,2.70
2022-12-03T05:48:44.850Z,2.30
2022-12-03T05:51:11.563Z,2.20
2022-12-03T05:53:38.162Z,2.80
2022-12-03T05:56:04.956Z,2.30
2022-12-03T05:58:31.588Z,2.30
2022-12-03T06:00:58.250Z,2.30
2022-12-03T06:03:25.098Z,2.30
2022-12-03T06:05:51.792Z,3.10
2022-12-03T06:08:18.495Z,2.30
2022-12-03T06:10:45.248Z,2.40
2022-12-03T06:13:11.846Z,2.60
2022-12-03T06:15:43.430Z,2.60
2022-12-03T06:18:10.764Z,2.40
2022-12-03T06:20:37.412Z,2.30
2022-12-03T06:23:04.005Z,2.70
2022-12-03T06:25:32.949Z,2.40
2022-12-03T06:27:59.573Z,2.30
2022-12-03T06:30:26.202Z,4.10
2022-12-03T06:32:52.866Z,2.80
2022-12-03T06:35:19.595Z,3.20
2022-12-03T06:37:46.268Z,2.40
2022-12-03T06:40:13.471Z,2.40
2022-12-03T06:42:40.073Z,2.40
2022-12-03T06:45:06.757Z,2.80
2022-12-03T06:47:33.511Z,2.40
2022-12-03T06:50:00.545Z,3.70
2022-12-03T06:52:27.154Z,2.40
2022-12-03T06:54:54.196Z,4.20
2022-12-03T06:57:21.110Z,2.50
2022-12-03T06:59:47.843Z,2.50
2022-12-03T07:02:14.600Z,2.50
2022-12-03T07:04:46.010Z,2.90
2022-12-03T07:07:13.314Z,4.20
2022-12-03T07:12:20.474Z,3.50
2022-12-03T07:14:50.269Z,3.30
2022-12-03T07:17:16.939Z,2.60
2022-12-03T07:19:43.545Z,3.20
2022-12-03T07:22:10.158Z,2.70
2022-12-03T07:24:36.808Z,4.20
2022-12-03T07:27:03.473Z,2.60
2022-12-03T07:29:30.097Z,2.50
2022-12-03T07:31:59.898Z,2.50
2022-12-03T07:34:42.298Z,2.50
2022-12-03T07:37:08.976Z,2.50
2022-12-03T07:39:35.659Z,2.90
2022-12-03T07:42:02.487Z,2.50
2022-12-03T07:44:31.353Z,3.00
2022-12-03T07:46:58.296Z,4.40
2022-12-03T07:49:24.956Z,2.50
2022-12-03T07:51:54.495Z,2.50
2022-12-03T07:54:21.354Z,3.90
2022-12-03T07:56:50.867Z,2.90
2022-12-03T07:59:17.511Z,1.40
2022-12-03T08:01:44.463Z,2.60
2022-12-03T08:04:14.915Z,2.60
2022-12-03T08:06:41.567Z,2.60
2022-12-03T08:09:11.971Z,4.30
2022-12-03T08:11:41.912Z,2.60
2022-12-03T08:14:13.514Z,2.70
2022-12-03T08:16:40.601Z,2.70
2022-12-03T08:19:16.408Z,4.20
2022-12-03T08:21:43.088Z,2.70
2022-12-03T08:24:13.794Z,2.70
2022-12-03T08:26:40.638Z,2.70
2022-12-03T08:29:17.501Z,2.70
2022-12-03T08:31:55.224Z,2.70
2022-12-03T08:34:22.686Z,2.80
2022-12-03T08:36:50.680Z,2.80
2022-12-03T08:39:33.643Z,3.00
2022-12-03T08:42:31.063Z,2.80
2022-12-03T08:44:59.875Z,2.90
2022-12-03T08:47:29.154Z,2.80
2022-12-03T08:50:00.298Z,2.80
2022-12-03T08:52:30.667Z,3.10
2022-12-03T08:54:57.551Z,2.90
2022-12-03T08:57:28.395Z,3.70
2022-12-03T08:59:59.261Z,3.00
2022-12-03T09:02:31.509Z,2.90
2022-12-03T09:04:58.179Z,2.90
2022-12-03T09:07:24.883Z,3.50
2022-12-03T09:09:51.573Z,3.80
2022-12-03T09:12:18.177Z,4.90
2022-12-03T09:14:44.808Z,2.90
2022-12-03T09:17:11.502Z,3.00
2022-12-03T09:19:44.269Z,5.00
2022-12-03T09:22:13.307Z,3.30
2022-12-03T09:24:40.073Z,3.40
2022-12-03T09:27:06.715Z,5.00
2022-12-03T09:29:33.416Z,3.30
2022-12-03T09:32:00.284Z,4.90
2022-12-03T09:34:26.957Z,3.40
2022-12-03T09:36:53.571Z,3.10
2022-12-03T09:39:20.192Z,3.90
2022-12-03T09:41:46.896Z,4.30
2022-12-03T09:44:17.573Z,3.20
2022-12-03T09:46:44.969Z,4.20
2022-12-03T09:49:15.720Z,3.20
2022-12-03T09:51:42.788Z,3.50
2022-12-03T09:54:09.802Z,4.70
2022-12-03T09:56:37.190Z,4.30
2022-12-03T09:59:06.804Z,3.20
2022-12-03T10:01:33.459Z,4.00
2022-12-03T10:04:01.230Z,4.70
2022-12-03T10:06:28.550Z,5.10
2022-12-03T10:08:55.268Z,3.50
2022-12-03T10:11:22.907Z,5.00
2022-12-03T10:13:49.676Z,3.40
2022-12-03T10:16:17.239Z,3.40
2022-12-03T10:18:45.625Z,3.40
2022-12-03T10:21:24.121Z,3.90
2022-12-03T10:24:07.770Z,5.20
2022-12-03T10:26:37.866Z,3.50
2022-12-03T10:29:04.701Z,3.50
2022-12-03T10:31:36.370Z,2.20
2022-12-03T10:34:03.183Z,3.50
2022-12-03T10:36:29.862Z,3.50
2022-12-03T10:39:12.955Z,3.60
2022-12-03T10:41:41.462Z,3.60
2022-12-03T10:44:12.243Z,3.80
2022-12-03T10:46:39.056Z,3.60
2022-12-03T10:49:10.236Z,4.30
2022-12-03T10:51:37.986Z,3.70
2022-12-03T10:54:08.372Z,3.90
2022-12-03T10:56:35.026Z,5.10
2022-12-03T10:59:01.693Z,3.90
2022-12-03T11:01:28.598Z,5.50
2022-12-03T11:03:56.091Z,4.80
2022-12-03T11:06:22.792Z,4.40
2022-12-03T11:08:56.332Z,4.00
2022-12-03T11:11:25.353Z,4.10
2022-12-03T11:13:52.122Z,5.90
2022-12-03T11:16:37.349Z,4.70
2022-12-03T11:19:04.129Z,4.00
2022-12-03T11:21:31.715Z,4.60
2022-12-03T11:23:58.364Z,5.50
2022-12-03T11:26:28.188Z,5.00
2022-12-03T11:28:58.455Z,4.00
2022-12-03T11:31:34.279Z,4.00
2022-12-03T11:34:22.648Z,4.00
2022-12-03T11:37:08.052Z,4.00
2022-12-03T11:40:02.748Z,3.80
2022-12-03T11:42:29.858Z,3.80
2022-12-03T11:45:02.674Z,3.90
2022-12-03T11:47:39.349Z,2.30
2022-12-03T11:50:18.311Z,3.90
2022-12-03T11:52:45.287Z,2.50
2022-12-03T11:55:19.475Z,3.60
2022-12-03T11:57:46.155Z,3.60
2022-12-03T12:00:17.487Z,3.50
2022-12-03T12:02:44.392Z,3.50
2022-12-03T12:05:14.937Z,4.30
2022-12-03T12:08:03.999Z,3.50
2022-12-03T12:10:44.251Z,4.30
2022-12-03T12:13:26.306Z,3.50
2022-12-03T12:15:53.073Z,3.50
2022-12-03T12:18:35.038Z,4.50
2022-12-03T12:21:21.686Z,3.40
2022-12-03T12:23:48.796Z,3.50
2022-12-03T12:26:15.389Z,3.80
2022-12-03T12:28:41.982Z,2.30
2022-12-03T12:31:11.880Z,4.00
2022-12-03T12:33:38.708Z,3.50
2022-12-03T12:36:09.689Z,3.70
2022-12-03T12:38:36.427Z,3.50
2022-12-03T12:41:05.009Z,3.50
2022-12-03T12:43:33.719Z,3.50
2022-12-03T12:46:18.730Z,3.50
2022-12-03T12:48:47.571Z,3.50
2022-12-03T12:51:15.006Z,3.50
2022-12-03T12:53:44.612Z,3.50
2022-12-03T12:56:30.580Z,3.50
2022-12-03T12:59:19.101Z,3.50
2022-12-03T13:01:51.061Z,4.60
2022-12-03T13:04:18.669Z,3.60
2022-12-03T13:06:48.638Z,5.00
2022-12-03T13:09:20.112Z,3.50
2022-12-03T13:11:48.458Z,3.50
2022-12-03T13:14:21.198Z,3.50
2022-12-03T13:17:05.174Z,3.50
2022-12-03T13:20:00.631Z,3.50
2022-12-03T13:22:41.047Z,3.50
2022-12-03T13:25:50.518Z,3.60
2022-12-03T13:28:25.770Z,3.50
2022-12-03T13:34:36.436Z,3.60
2022-12-03T13:37:05.191Z,3.20
2022-12-03T13:42:44.899Z,3.40
2022-12-03T13:45:15.063Z,3.50
2022-12-03T13:47:41.954Z,3.40
2022-12-03T13:50:22.359Z,4.80
2022-12-03T13:52:57.319Z,3.40
2022-12-03T13:55:27.964Z,4.10
2022-12-03T13:57:55.052Z,3.30
2022-12-03T14:00:21.973Z,3.60
2022-12-03T14:02:48.804Z,3.30
2022-12-03T14:05:17.523Z,3.50
2022-12-03T14:07:45.588Z,3.50
2022-12-03T14:10:12.528Z,3.40
2022-12-03T14:12:42.337Z,3.40
2022-12-03T14:15:13.167Z,5.20
2022-12-03T14:17:39.878Z,3.40
2022-12-03T14:20:08.170Z,4.50
2022-12-03T14:22:38.009Z,3.50
2022-12-03T14:25:05.497Z,4.00
2022-12-03T14:27:32.140Z,3.60
2022-12-03T14:29:58.910Z,3.50
2022-12-03T14:32:25.673Z,3.50
2022-12-03T14:34:52.347Z,5.00
2022-12-03T14:37:19.134Z,4.80
2022-12-03T14:39:45.824Z,5.00
2022-12-03T14:42:16.600Z,3.60
2022-12-03T14:44:47.119Z,3.50
2022-12-03T14:47:14.119Z,3.60
2022-12-03T14:49:40.853Z,3.60
2022-12-03T14:52:11.299Z,4.80
2022-12-03T14:54:46.903Z,3.70
2022-12-03T14:57:14.192Z,3.70
2022-12-03T14:59:41.349Z,4.70
2022-12-03T15:02:08.197Z,4.40
2022-12-03T15:04:34.993Z,4.80
2022-12-03T15:07:03.707Z,4.40
2022-12-03T15:09:31.216Z,3.60
2022-12-03T15:11:57.865Z,4.20
2022-12-03T15:14:24.613Z,3.60
2022-12-03T15:16:51.657Z,4.10
2022-12-03T15:19:18.751Z,5.30
2022-12-03T15:22:03.420Z,3.60
2022-12-03T15:24:36.178Z,3.60
2022-12-03T15:27:12.023Z,3.60
2022-12-03T15:29:43.882Z,3.60
2022-12-03T15:32:25.523Z,3.70
2022-12-03T15:34:59.855Z,3.70
2022-12-03T15:37:38.867Z,3.90
2022-12-03T15:43:03.316Z,3.80
2022-12-03T15:45:38.626Z,3.80
2022-12-03T15:48:13.542Z,3.80
2022-12-03T15:50:48.316Z,3.70
2022-12-03T15:53:27.732Z,3.90
2022-12-03T15:55:59.739Z,3.90
2022-12-03T15:58:35.132Z,4.30
2022-12-03T16:01:05.100Z,3.70
2022-12-03T16:03:43.410Z,5.60
2022-12-03T16:06:18.440Z,3.50
2022-12-03T16:08:54.791Z,4.10
2022-12-03T16:11:29.777Z,3.80
2022-12-03T16:14:04.903Z,3.80
2022-12-03T16:16:34.512Z,3.80
2022-12-03T16:19:07.225Z,5.60
2022-12-03T16:21:39.646Z,3.80
2022-12-03T16:24:11.227Z,3.70
2022-12-03T16:26:47.479Z,3.80
2022-12-03T16:29:23.339Z,3.80
2022-12-03T16:32:02.683Z,3.80
2022-12-03T16:34:39.351Z,3.80
2022-12-03T16:37:14.426Z,3.70
2022-12-03T16:39:53.630Z,4.80
2022-12-03T16:42:30.004Z,4.30
2022-12-03T16:45:11.870Z,4.70
2022-12-03T16:47:44.070Z,3.80
2022-12-03T16:50:24.600Z,3.90
2022-12-03T16:53:05.222Z,3.80
2022-12-03T16:55:40.367Z,3.70
2022-12-03T16:58:19.329Z,3.80
2022-12-03T17:00:54.426Z,3.80
2022-12-03T17:03:33.665Z,3.80
2022-12-03T17:06:12.476Z,3.80
2022-12-03T17:08:49.963Z,4.70
2022-12-03T17:11:23.317Z,3.90
2022-12-03T17:14:03.383Z,3.90
2022-12-03T17:16:39.409Z,4.40
2022-12-03T17:19:17.888Z,3.90
2022-12-03T17:21:54.292Z,3.80
2022-12-03T17:24:35.166Z,3.30
2022-12-03T17:27:13.450Z,5.00
2022-12-03T17:29:51.890Z,3.80
2022-12-03T17:32:29.315Z,4.40
2022-12-03T17:35:01.969Z,3.90
2022-12-03T17:37:42.871Z,3.80
2022-12-03T17:40:22.018Z,4.40
2022-12-03T17:43:00.424Z,3.80
2022-12-03T17:45:37.308Z,3.80
2022-12-03T17:48:19.027Z,3.80
2022-12-03T17:50:57.997Z,3.80
2022-12-03T17:53:35.618Z,4.00
2022-12-03T17:56:17.246Z,3.70
2022-12-03T17:58:52.139Z,4.90
2022-12-03T18:01:31.121Z,3.90
2022-12-03T18:04:07.225Z,3.90
2022-12-03T18:06:49.412Z,4.40
2022-12-03T18:09:25.715Z,4.20
2022-12-03T18:12:04.101Z,3.90
2022-12-03T18:14:42.912Z,3.90
2022-12-03T18:17:19.391Z,4.20
2022-12-03T18:19:55.469Z,3.90
2022-12-03T18:22:28.536Z,3.90
2022-12-03T18:25:02.447Z,4.00
2022-12-03T18:27:42.912Z,4.10
2022-12-03T18:30:19.364Z,3.90
2022-12-03T18:32:54.212Z,3.90
2022-12-03T18:35:30.349Z,4.00
2022-12-03T18:38:09.193Z,4.30
2022-12-03T18:40:41.215Z,4.00
2022-12-03T18:43:26.254Z,3.90
2022-12-03T18:46:02.276Z,4.00
2022-12-03T18:48:40.175Z,4.00
2022-12-03T18:51:26.370Z,3.90
2022-12-03T18:54:03.820Z,3.90
2022-12-03T18:56:42.710Z,4.00
2022-12-03T18:59:22.054Z,4.00
2022-12-03T19:01:54.481Z,4.20
2022-12-03T19:04:35.745Z,4.00
2022-12-03T19:07:17.578Z,5.10
2022-12-03T19:09:54.686Z,3.90
2022-12-03T19:12:33.136Z,4.00
2022-12-03T19:15:08.090Z,4.00
2022-12-03T19:17:48.927Z,5.80
2022-12-03T19:20:24.467Z,5.30
2022-12-03T19:22:57.338Z,4.30
2022-12-03T19:25:32.345Z,4.00
2022-12-03T19:28:04.149Z,4.00
2022-12-03T19:30:38.929Z,5.70
2022-12-03T19:33:16.344Z,4.60
2022-12-03T19:35:53.177Z,4.00
2022-12-03T19:38:27.934Z,4.00
2022-12-03T19:41:06.706Z,4.10
2022-12-03T19:43:41.853Z,4.10
2022-12-03T19:46:21.006Z,4.10
2022-12-03T19:49:07.829Z,4.70
2022-12-03T19:51:49.192Z,4.20
2022-12-03T19:54:27.644Z,5.10
2022-12-03T19:57:23.048Z,4.00
2022-12-03T19:59:59.022Z,4.00
2022-12-03T20:02:34.548Z,4.00
2022-12-03T20:05:07.309Z,4.60
2022-12-03T20:08:00.871Z,4.10
2022-12-03T20:10:35.839Z,5.60
2022-12-03T20:13:18.709Z,4.00
2022-12-03T20:15:57.080Z,4.00
2022-12-03T20:18:48.555Z,4.00
2022-12-03T20:21:24.816Z,4.80
2022-12-03T20:24:06.045Z,4.00
2022-12-03T20:26:41.839Z,4.00
2022-12-03T20:29:19.340Z,4.10
2022-12-03T20:32:00.649Z,4.50
2022-12-03T20:34:37.250Z,5.00
2022-12-03T20:37:03.943Z,4.00
2022-12-03T20:39:40.092Z,5.90
2022-12-03T20:42:17.990Z,4.00
2022-12-03T20:44:57.002Z,4.00
2022-12-03T20:47:30.387Z,4.00
2022-12-03T20:50:07.707Z,4.00
2022-12-03T20:53:09.349Z,5.20
2022-12-03T20:55:43.472Z,4.00
2022-12-03T20:58:22.079Z,4.10
2022-12-03T21:00:55.287Z,4.00
2022-12-03T21:03:33.726Z,4.00
2022-12-03T21:06:12.091Z,4.10
2022-12-03T21:08:48.610Z,5.10
2022-12-03T21:11:25.828Z,4.10
2022-12-03T21:14:04.669Z,5.10
2022-12-03T21:19:32.351Z,4.80
2022-12-03T21:22:07.790Z,4.30
2022-12-03T21:24:45.884Z,4.40
2022-12-03T21:27:27.610Z,4.10
2022-12-03T21:30:03.344Z,4.10
2022-12-03T21:32:48.010Z,4.10
2022-12-03T21:35:28.991Z,4.10
2022-12-03T21:38:14.480Z,4.10
2022-12-03T21:40:56.030Z,4.10
2022-12-03T21:44:07.303Z,5.10
2022-12-03T21:47:09.561Z,4.20
2022-12-03T21:49:48.447Z,4.10
2022-12-03T21:52:47.546Z,4.20
2022-12-03T21:55:22.723Z,4.20
2022-12-03T21:58:13.698Z,4.20
2022-12-03T22:00:49.215Z,5.10
2022-12-03T22:03:24.761Z,4.10
2022-12-03T22:06:07.495Z,4.10
2022-12-03T22:08:45.862Z,4.60
2022-12-03T22:11:28.297Z,4.10
2022-12-03T22:14:08.280Z,4.10
2022-12-03T22:16:44.428Z,4.10
2022-12-03T22:19:25.830Z,4.20
2022-12-03T22:22:13.690Z,4.20
2022-12-03T22:24:48.197Z,4.20
2022-12-03T22:27:29.330Z,4.30
2022-12-03T22:30:02.311Z,4.20
2022-12-03T22:32:43.534Z,4.30
2022-12-03T22:35:20.145Z,4.20
2022-12-03T22:38:07.509Z,4.20
2022-12-03T22:40:42.978Z,4.20
2022-12-03T22:43:15.798Z,4.20
2022-12-03T22:45:48.750Z,4.20
2022-12-03T22:48:21.216Z,4.30
2022-12-03T22:50:55.493Z,4.20
2022-12-03T22:53:33.704Z,4.60
2022-12-03T22:56:28.787Z,4.30
2022-12-03T22:59:04.667Z,4.20
2022-12-03T23:01:45.307Z,4.70
2022-12-03T23:04:21.153Z,4.30
2022-12-03T23:06:59.641Z,4.30
2022-12-03T23:09:36.401Z,4.30
2022-12-03T23:12:08.079Z,4.30
2022-12-03T23:14:52.946Z,4.30
2022-12-03T23:17:25.288Z,4.50
2022-12-03T23:20:03.808Z,4.30
2022-12-03T23:22:40.448Z,4.30
2022-12-03T23:25:19.416Z,4.30
2022-12-03T23:28:01.361Z,4.20
2022-12-03T23:30:39.871Z,4.20
2022-12-03T23:33:18.128Z,4.30
2022-12-03T23:35:59.298Z,4.50
2022-12-03T23:38:38.327Z,4.20
2022-12-03T23:41:14.186Z,4.20
2022-12-03T23:43:49.683Z,4.30
2022-12-03T23:46:29.030Z,4.20
2022-12-03T23:49:07.184Z,4.20
2022-12-03T23:51:48.301Z,4.20
2022-12-03T23:54:28.842Z,4.20
2022-12-03T23:57:05.725Z,4.20
2022-12-03T23:59:45.382Z,4.20
